Time;durP1;ratioP1;P1;durP2;ratioP2;P2;SDS_P1;SDS_P2;PMS_P1;PMS_P2;Temp;Humidity;BMP_temperature;BMP_pressure;BME280_temperature;BME280_humidity;BME280_pressure;Samples;Min_cycle;Max_cycle;Signal;HPM_P1;HPM_P2
2022/08/18 00:00:57;;;;;;;42.93;35.27;;;;;;;;;;4975586;28;20420;-52
2022/08/18 00:03:23;;;;;;;45.50;37.13;;;;;;;;;;4975608;28;20496;-51
2022/08/18 00:05:49;;;;;;;44.80;36.67;;;;;;;;;;4975511;28;20941;-51
2022/08/18 00:08:14;;;;;;;44.87;37.90;;;;;;;;;;4974174;28;20444;-52
2022/08/18 00:10:41;;;;;;;47.07;35.90;;;;;;;;;;4975664;28;20436;-52
2022/08/18 00:13:07;;;;;;;49.60;36.70;;;;;;;;;;4975446;28;20411;-52
2022/08/18 00:15:33;;;;;;;46.53;37.30;;;;;;;;;;4974383;28;21008;-52
2022/08/18 00:17:59;;;;;;;52.03;39.10;;;;;;;;;;4975406;28;20400;-51
2022/08/18 00:20:25;;;;;;;50.80;40.30;;;;;;;;;;4974994;28;20970;-51
2022/08/18 00:22:51;;;;;;;55.43;42.17;;;;;;;;;;4975361;28;20483;-51
2022/08/18 00:25:18;;;;;;;53.67;41.17;;;;;;;;;;4975194;28;20401;-51
2022/08/18 00:27:44;;;;;;;54.20;40.20;;;;;;;;;;4975228;28;20433;-51
2022/08/18 00:30:12;;;;;;;59.43;42.37;;;;;;;;;;4974843;28;20504;-51
2022/08/18 00:32:40;;;;;;;56.70;42.17;;;;;;;;;;4975058;28;20480;-51
2022/08/18 00:35:07;;;;;;;55.73;39.87;;;;;;;;;;4974993;28;20507;-51
2022/08/18 00:37:33;;;;;;;55.13;41.00;;;;;;;;;;4975045;28;20964;-53
2022/08/18 00:39:58;;;;;;;56.57;43.27;;;;;;;;;;4973571;28;20846;-52
2022/08/18 00:42:26;;;;;;;53.50;40.17;;;;;;;;;;4974267;28;20435;-50
2022/08/18 00:44:53;;;;;;;55.37;42.70;;;;;;;;;;4974714;28;20412;-50
2022/08/18 00:47:19;;;;;;;52.83;41.50;;;;;;;;;;4974757;28;20469;-51
2022/08/18 00:49:46;;;;;;;55.17;40.73;;;;;;;;;;4974451;28;20520;-50
2022/08/18 00:52:13;;;;;;;53.53;40.60;;;;;;;;;;4974765;28;20459;-52
2022/08/18 00:54:40;;;;;;;52.57;37.33;;;;;;;;;;4974702;28;20824;-51
2022/08/18 00:57:07;;;;;;;58.00;39.67;;;;;;;;;;4974603;28;20775;-51
2022/08/18 00:59:37;;;;;;;56.80;41.00;;;;;;;;;;4974286;28;20533;-52
2022/08/18 01:02:05;;;;;;;53.03;39.00;;;;;;;;;;4973984;28;20467;-51
2022/08/18 01:04:34;;;;;;;47.33;39.13;;;;;;;;;;4974123;28;20401;-52
2022/08/18 01:07:04;;;;;;;51.53;39.77;;;;;;;;;;4973534;28;20416;-51
2022/08/18 01:09:30;;;;;;;47.90;37.90;;;;;;;;;;4973080;28;20487;-50
2022/08/18 01:11:56;;;;;;;50.93;39.30;;;;;;;;;;4974345;28;20417;-48
2022/08/18 01:14:23;;;;;;;55.73;40.50;;;;;;;;;;4974171;28;20897;-50
2022/08/18 01:22:31;;;;;;;52.20;39.57;;;;;;;;;;4974163;28;20409;-52
2022/08/18 01:27:44;;;;;;;54.70;39.97;;;;;;;;;;4974075;28;20472;-50
2022/08/18 01:30:12;;;;;;;58.10;41.40;;;;;;;;;;4973781;28;20425;-51
2022/08/18 01:32:38;;;;;;;53.70;40.47;;;;;;;;;;4973934;28;20409;-51
2022/08/18 01:35:07;;;;;;;52.07;40.27;;;;;;;;;;4973811;28;20497;-51
2022/08/18 01:37:34;;;;;;;56.60;42.37;;;;;;;;;;4973821;28;20911;-52
2022/08/18 01:40:04;;;;;;;53.10;41.63;;;;;;;;;;4972702;28;20460;-52
2022/08/18 01:42:30;;;;;;;55.93;43.37;;;;;;;;;;4973748;28;20401;-52
2022/08/18 01:44:56;;;;;;;58.97;44.00;;;;;;;;;;4973890;28;20410;-52
2022/08/18 01:47:22;;;;;;;57.07;44.37;;;;;;;;;;4973718;28;20419;-52
2022/08/18 01:49:48;;;;;;;58.50;43.90;;;;;;;;;;4973501;28;20433;-52
2022/08/18 01:52:16;;;;;;;60.77;46.57;;;;;;;;;;4973610;28;20428;-51
2022/08/18 01:54:42;;;;;;;65.63;48.67;;;;;;;;;;4973567;28;20486;-51
2022/08/18 01:57:12;;;;;;;53.83;42.23;;;;;;;;;;4973710;28;20959;-53
2022/08/18 01:59:38;;;;;;;54.73;41.77;;;;;;;;;;4973154;28;20425;-50
2022/08/18 02:02:04;;;;;;;54.40;43.30;;;;;;;;;;4973503;28;20410;-50
2022/08/18 02:04:35;;;;;;;53.17;40.80;;;;;;;;;;4973343;28;20387;-51
2022/08/18 02:07:01;;;;;;;60.80;42.50;;;;;;;;;;4973528;28;20458;-51
2022/08/18 02:09:28;;;;;;;56.60;43.67;;;;;;;;;;4973387;28;20436;-52
2022/08/18 02:11:55;;;;;;;56.77;43.60;;;;;;;;;;4972381;28;20936;-52
2022/08/18 02:14:20;;;;;;;54.53;42.80;;;;;;;;;;4973190;28;20518;-52
2022/08/18 02:16:46;;;;;;;60.20;44.20;;;;;;;;;;4973100;28;20431;-51
2022/08/18 02:19:13;;;;;;;54.57;41.37;;;;;;;;;;4972404;28;20935;-51
2022/08/18 02:21:39;;;;;;;57.33;40.90;;;;;;;;;;4973293;28;20898;-52
2022/08/18 02:24:05;;;;;;;62.10;42.60;;;;;;;;;;4973241;28;20901;-52
2022/08/18 02:26:31;;;;;;;68.83;46.03;;;;;;;;;;4973184;28;20416;-51
2022/08/18 02:28:57;;;;;;;59.30;43.20;;;;;;;;;;4972773;28;20424;-52
2022/08/18 02:31:24;;;;;;;59.63;43.40;;;;;;;;;;4973109;28;20408;-53
2022/08/18 02:33:50;;;;;;;60.43;44.33;;;;;;;;;;4973086;28;20811;-52
2022/08/18 02:36:16;;;;;;;55.17;42.67;;;;;;;;;;4973056;28;20898;-50
2022/08/18 02:38:42;;;;;;;58.07;41.03;;;;;;;;;;4972918;28;20470;-51
2022/08/18 02:41:10;;;;;;;58.00;42.30;;;;;;;;;;4970994;28;20413;-49
2022/08/18 02:43:36;;;;;;;60.40;44.77;;;;;;;;;;4954140;29;20828;-53
2022/08/18 02:46:03;;;;;;;64.10;45.10;;;;;;;;;;4953513;29;20409;-52
2022/08/18 02:48:33;;;;;;;63.10;44.60;;;;;;;;;;4953746;29;20450;-52
2022/08/18 02:51:11;;;;;;;63.37;42.57;;;;;;;;;;4953653;29;20391;-53
2022/08/18 02:53:37;;;;;;;66.70;44.63;;;;;;;;;;4953609;29;20540;-53
2022/08/18 02:56:23;;;;;;;62.53;43.00;;;;;;;;;;4953559;29;20402;-52
2022/08/18 02:58:52;;;;;;;75.40;46.87;;;;;;;;;;4953321;28;20439;-53
2022/08/18 03:01:18;;;;;;;80.97;50.33;;;;;;;;;;4953546;29;20491;-53
2022/08/18 03:03:44;;;;;;;91.30;53.00;;;;;;;;;;4953689;29;20421;-52
2022/08/18 03:06:10;;;;;;;80.07;51.57;;;;;;;;;;4953433;29;20417;-52
2022/08/18 03:08:36;;;;;;;68.27;46.13;;;;;;;;;;4953284;28;20421;-52
2022/08/18 03:11:02;;;;;;;68.70;44.70;;;;;;;;;;4965246;28;20899;-53
2022/08/18 03:13:29;;;;;;;70.73;47.33;;;;;;;;;;4972692;28;20940;-52
2022/08/18 03:15:55;;;;;;;70.63;44.40;;;;;;;;;;4972638;28;20392;-51
2022/08/18 03:18:22;;;;;;;71.70;47.40;;;;;;;;;;4972852;28;20461;-51
2022/08/18 03:20:48;;;;;;;73.00;45.57;;;;;;;;;;4972358;28;20521;-50
2022/08/18 03:23:13;;;;;;;66.57;46.53;;;;;;;;;;4972778;28;20428;-50
2022/08/18 03:25:43;;;;;;;68.20;45.73;;;;;;;;;;4972544;28;20406;-52
2022/08/18 03:28:09;;;;;;;73.50;47.70;;;;;;;;;;4972597;28;20767;-52
2022/08/18 03:30:35;;;;;;;71.60;45.20;;;;;;;;;;4975674;28;20417;-52
2022/08/18 03:33:01;;;;;;;67.77;45.57;;;;;;;;;;4976120;28;20401;-50
2022/08/18 03:35:27;;;;;;;67.37;43.87;;;;;;;;;;4976193;28;20412;-51
2022/08/18 03:37:54;;;;;;;63.57;43.83;;;;;;;;;;4976122;28;20433;-52
2022/08/18 03:40:20;;;;;;;63.23;43.87;;;;;;;;;;4974867;28;20441;-51
2022/08/18 03:42:46;;;;;;;64.23;44.00;;;;;;;;;;4975981;28;20832;-52
2022/08/18 03:45:12;;;;;;;68.00;43.63;;;;;;;;;;4976049;28;20409;-51
2022/08/18 03:47:39;;;;;;;76.63;45.17;;;;;;;;;;4975930;28;20405;-51
2022/08/18 03:50:05;;;;;;;65.70;44.07;;;;;;;;;;4975729;28;20428;-51
2022/08/18 03:52:31;;;;;;;63.03;42.47;;;;;;;;;;4975789;28;20428;-52
2022/08/18 03:54:58;;;;;;;74.77;43.97;;;;;;;;;;4975597;28;20463;-51
2022/08/18 03:57:25;;;;;;;67.53;43.57;;;;;;;;;;4975707;28;20397;-50
2022/08/18 03:59:50;;;;;;;65.40;43.33;;;;;;;;;;4975450;28;20424;-51
2022/08/18 04:02:17;;;;;;;75.00;41.73;;;;;;;;;;4975667;28;20405;-51
2022/08/18 04:04:43;;;;;;;75.03;47.07;;;;;;;;;;4975937;28;20824;-51
2022/08/18 04:07:10;;;;;;;82.90;47.87;;;;;;;;;;4975633;28;20519;-50
2022/08/18 04:09:37;;;;;;;65.13;43.50;;;;;;;;;;4974358;28;20544;-52
2022/08/18 04:12:09;;;;;;;66.60;44.90;;;;;;;;;;4975549;28;20424;-49
2022/08/18 04:14:36;;;;;;;65.33;43.07;;;;;;;;;;4975525;28;20504;-52
2022/08/18 04:17:02;;;;;;;71.70;45.67;;;;;;;;;;4975440;28;20408;-51
2022/08/18 04:19:29;;;;;;;74.07;44.77;;;;;;;;;;4975164;28;20417;-51
2022/08/18 04:21:56;;;;;;;75.43;44.67;;;;;;;;;;4975288;28;20956;-51
2022/08/18 04:24:24;;;;;;;87.10;48.53;;;;;;;;;;4975235;28;20405;-50
2022/08/18 04:26:50;;;;;;;91.93;50.50;;;;;;;;;;4975172;28;20408;-50
2022/08/18 04:29:17;;;;;;;94.80;49.93;;;;;;;;;;4974953;28;20559;-48
2022/08/18 04:31:43;;;;;;;89.63;46.90;;;;;;;;;;4975220;28;20914;-51
2022/08/18 04:34:09;;;;;;;101.80;52.47;;;;;;;;;;4975024;28;20977;-50
2022/08/18 04:36:35;;;;;;;111.80;52.23;;;;;;;;;;4975054;28;20464;-48
2022/08/18 04:39:03;;;;;;;84.43;45.03;;;;;;;;;;4973690;28;20445;-49
2022/08/18 04:41:29;;;;;;;92.13;50.60;;;;;;;;;;4974107;28;20987;-49
2022/08/18 04:43:59;;;;;;;104.63;53.60;;;;;;;;;;4974959;28;20967;-51
2022/08/18 04:46:26;;;;;;;103.67;50.90;;;;;;;;;;4974984;28;20429;-52
2022/08/18 04:48:57;;;;;;;95.83;50.80;;;;;;;;;;4974445;28;20495;-51
2022/08/18 04:51:23;;;;;;;101.87;49.77;;;;;;;;;;4974880;28;20963;-52
2022/08/18 04:53:49;;;;;;;110.30;54.20;;;;;;;;;;4974714;28;20456;-51
2022/08/18 04:56:24;;;;;;;116.37;53.77;;;;;;;;;;4974621;28;20405;-51
2022/08/18 04:58:51;;;;;;;110.63;54.70;;;;;;;;;;4974470;28;20826;-50
2022/08/18 05:01:19;;;;;;;117.33;54.27;;;;;;;;;;4974594;28;20408;-52
2022/08/18 05:03:45;;;;;;;117.17;55.70;;;;;;;;;;4974595;28;21240;-49
2022/08/18 05:06:11;;;;;;;115.53;55.27;;;;;;;;;;4974439;28;20471;-51
2022/08/18 05:08:37;;;;;;;124.23;57.17;;;;;;;;;;4974203;28;20380;-50
2022/08/18 05:11:03;;;;;;;122.30;57.57;;;;;;;;;;4972603;28;20576;-52
2022/08/18 05:13:29;;;;;;;125.73;56.70;;;;;;;;;;4974547;28;20434;-53
2022/08/18 05:15:56;;;;;;;121.77;57.37;;;;;;;;;;4974185;28;20407;-52
2022/08/18 05:18:23;;;;;;;123.30;55.77;;;;;;;;;;4974256;28;20787;-51
2022/08/18 05:20:50;;;;;;;109.17;52.60;;;;;;;;;;4974725;28;21004;-49
2022/08/18 05:23:17;;;;;;;121.37;56.80;;;;;;;;;;4974174;28;20405;-49
2022/08/18 05:25:43;;;;;;;111.87;52.33;;;;;;;;;;4974074;28;20439;-49
2022/08/18 05:28:09;;;;;;;125.00;54.40;;;;;;;;;;4973925;28;20398;-50
2022/08/18 05:30:36;;;;;;;129.20;56.33;;;;;;;;;;4973798;28;20455;-49
2022/08/18 05:33:02;;;;;;;132.57;59.63;;;;;;;;;;4974168;28;20775;-49
2022/08/18 05:35:34;;;;;;;125.80;56.17;;;;;;;;;;4974027;28;20764;-50
2022/08/18 05:38:03;;;;;;;130.93;57.10;;;;;;;;;;4973616;28;20391;-50
2022/08/18 05:40:30;;;;;;;129.87;57.77;;;;;;;;;;4972741;28;20441;-50
2022/08/18 05:42:58;;;;;;;123.13;57.13;;;;;;;;;;4973811;28;20452;-49
2022/08/18 05:45:24;;;;;;;125.37;54.97;;;;;;;;;;4973817;28;20368;-51
2022/08/18 05:47:50;;;;;;;132.37;57.20;;;;;;;;;;4973688;28;20452;-50
2022/08/18 05:50:18;;;;;;;140.07;61.47;;;;;;;;;;4973751;28;20923;-51
2022/08/18 05:52:55;;;;;;;144.33;58.50;;;;;;;;;;4973496;28;20454;-50
2022/08/18 05:58:17;;;;;;;135.77;58.80;;;;;;;;;;4972595;28;20447;-50
2022/08/18 06:00:47;;;;;;;127.40;53.30;;;;;;;;;;4972716;28;20837;-51
2022/08/18 06:03:16;;;;;;;132.73;55.87;;;;;;;;;;4973684;28;20406;-50
2022/08/18 06:05:56;;;;;;;124.57;54.83;;;;;;;;;;4973560;28;20372;-50
2022/08/18 06:08:24;;;;;;;128.07;52.87;;;;;;;;;;4973417;28;20397;-51
2022/08/18 06:10:50;;;;;;;118.07;52.73;;;;;;;;;;4973317;28;20800;-50
2022/08/18 06:13:18;;;;;;;122.93;53.87;;;;;;;;;;4973346;28;20401;-49
2022/08/18 06:15:47;;;;;;;118.27;51.00;;;;;;;;;;4973358;28;20456;-50
2022/08/18 06:18:19;;;;;;;115.77;49.00;;;;;;;;;;4973395;28;20404;-49
2022/08/18 06:21:04;;;;;;;109.07;48.53;;;;;;;;;;4973107;28;20397;-49
2022/08/18 06:23:48;;;;;;;106.10;46.83;;;;;;;;;;4973246;28;20402;-50
2022/08/18 06:26:21;;;;;;;104.80;45.13;;;;;;;;;;4973198;28;20470;-51
2022/08/18 06:28:56;;;;;;;105.30;47.87;;;;;;;;;;4971991;28;20430;-50
2022/08/18 06:31:28;;;;;;;98.60;43.80;;;;;;;;;;4972593;28;20443;-50
2022/08/18 06:33:57;;;;;;;93.00;42.23;;;;;;;;;;4973143;28;20858;-50
2022/08/18 06:36:39;;;;;;;98.63;43.70;;;;;;;;;;4973096;28;20382;-50
2022/08/18 06:39:31;;;;;;;88.27;41.60;;;;;;;;;;4972461;28;20765;-51
2022/08/18 06:41:57;;;;;;;87.63;44.03;;;;;;;;;;4970451;28;20480;-50
2022/08/18 06:44:32;;;;;;;93.30;44.30;;;;;;;;;;4973035;28;20411;-50
2022/08/18 06:47:04;;;;;;;78.73;39.77;;;;;;;;;;4972990;28;20788;-50
2022/08/18 06:49:35;;;;;;;88.80;41.20;;;;;;;;;;4972379;28;20955;-50
2022/08/18 06:52:19;;;;;;;89.07;40.97;;;;;;;;;;4972320;28;20436;-50
2022/08/18 06:54:46;;;;;;;79.47;38.77;;;;;;;;;;4965740;28;20465;-50
2022/08/18 06:57:22;;;;;;;84.70;41.47;;;;;;;;;;4972495;28;20414;-51
2022/08/18 06:59:56;;;;;;;83.60;40.60;;;;;;;;;;4971128;28;20460;-50
2022/08/18 07:02:25;;;;;;;86.20;39.50;;;;;;;;;;4972237;28;20414;-49
2022/08/18 07:05:14;;;;;;;83.83;39.70;;;;;;;;;;4974689;28;20431;-49
2022/08/18 07:07:42;;;;;;;83.87;41.07;;;;;;;;;;4976316;28;20418;-50
2022/08/18 07:10:14;;;;;;;93.10;41.63;;;;;;;;;;4975289;28;20402;-50
2022/08/18 07:12:40;;;;;;;90.17;41.50;;;;;;;;;;4975866;28;20825;-51
2022/08/18 07:15:07;;;;;;;86.73;39.67;;;;;;;;;;4974923;28;20476;-50
2022/08/18 07:17:36;;;;;;;81.97;39.90;;;;;;;;;;4976654;28;20405;-49
2022/08/18 07:20:06;;;;;;;83.40;41.20;;;;;;;;;;4976103;28;20422;-50
2022/08/18 07:22:52;;;;;;;89.13;40.17;;;;;;;;;;4976518;28;20409;-49
2022/08/18 07:25:21;;;;;;;90.00;38.70;;;;;;;;;;4976417;28;20881;-50
2022/08/18 07:27:50;;;;;;;74.40;35.60;;;;;;;;;;4976431;28;20399;-49
2022/08/18 07:30:19;;;;;;;73.63;37.77;;;;;;;;;;4975110;28;20561;-50
2022/08/18 07:32:51;;;;;;;81.23;39.80;;;;;;;;;;4975563;28;20433;-50
2022/08/18 07:35:22;;;;;;;82.47;40.80;;;;;;;;;;4976208;28;20867;-51
2022/08/18 07:37:51;;;;;;;74.40;37.83;;;;;;;;;;4976409;28;20761;-50
2022/08/18 07:40:23;;;;;;;78.47;39.10;;;;;;;;;;4975921;28;20426;-50
2022/08/18 07:42:56;;;;;;;75.70;37.00;;;;;;;;;;4976072;28;20403;-50
2022/08/18 07:45:28;;;;;;;73.10;37.43;;;;;;;;;;4976110;28;20470;-50
2022/08/18 07:48:11;;;;;;;61.87;33.80;;;;;;;;;;4976042;28;20502;-50
2022/08/18 07:50:48;;;;;;;66.53;37.17;;;;;;;;;;4975770;28;20429;-50
2022/08/18 07:53:22;;;;;;;68.80;38.60;;;;;;;;;;4975694;28;20408;-50
2022/08/18 07:55:51;;;;;;;75.97;38.47;;;;;;;;;;4975932;28;20400;-50
2022/08/18 07:58:30;;;;;;;82.80;39.27;;;;;;;;;;4974825;28;21665;-50
2022/08/18 08:01:04;;;;;;;72.10;36.50;;;;;;;;;;4974811;28;20461;-49
2022/08/18 08:03:40;;;;;;;70.53;37.10;;;;;;;;;;4975893;28;20420;-50
2022/08/18 08:06:26;;;;;;;77.20;36.90;;;;;;;;;;4969532;28;20430;-50
2022/08/18 08:08:53;;;;;;;71.97;36.30;;;;;;;;;;4955980;28;20486;-50
2022/08/18 08:11:38;;;;;;;82.17;40.47;;;;;;;;;;4956352;29;20409;-51
2022/08/18 08:14:06;;;;;;;87.70;40.63;;;;;;;;;;4956211;29;20449;-50
2022/08/18 08:16:49;;;;;;;72.47;38.10;;;;;;;;;;4954896;28;20787;-49
2022/08/18 08:19:21;;;;;;;75.17;38.50;;;;;;;;;;4955794;28;20454;-50
2022/08/18 08:22:03;;;;;;;81.03;39.83;;;;;;;;;;4956150;29;20398;-49
2022/08/18 08:24:35;;;;;;;79.33;38.60;;;;;;;;;;4956048;29;20893;-50
2022/08/18 08:27:04;;;;;;;88.57;40.40;;;;;;;;;;4956023;29;20414;-50
2022/08/18 08:29:37;;;;;;;77.63;38.10;;;;;;;;;;4964497;28;20456;-50
2022/08/18 08:32:24;;;;;;;78.97;39.03;;;;;;;;;;4974604;28;20463;-50
2022/08/18 08:34:56;;;;;;;71.37;38.13;;;;;;;;;;4974992;28;20553;-50
2022/08/18 08:37:42;;;;;;;71.03;36.90;;;;;;;;;;4975174;28;20498;-55
2022/08/18 08:40:08;;;;;;;66.23;34.90;;;;;;;;;;4964460;28;20531;-50
2022/08/18 08:42:46;;;;;;;65.17;36.77;;;;;;;;;;4975080;28;20751;-49
2022/08/18 08:45:19;;;;;;;70.30;35.80;;;;;;;;;;4975627;28;20414;-49
2022/08/18 08:47:54;;;;;;;65.53;35.70;;;;;;;;;;4975018;28;20412;-50
2022/08/18 08:50:22;;;;;;;67.97;36.47;;;;;;;;;;4973848;28;20522;-50
2022/08/18 08:53:05;;;;;;;62.23;35.03;;;;;;;;;;4974548;28;20460;-50
2022/08/18 08:55:33;;;;;;;63.07;37.00;;;;;;;;;;4974091;28;20550;-50
2022/08/18 08:57:59;;;;;;;53.70;32.80;;;;;;;;;;4973684;28;20496;-50
2022/08/18 09:00:26;;;;;;;59.60;35.53;;;;;;;;;;4973335;28;20507;-50
2022/08/18 09:03:00;;;;;;;53.53;35.50;;;;;;;;;;4974718;28;20497;-50
2022/08/18 09:05:29;;;;;;;56.37;34.37;;;;;;;;;;4974451;28;20419;-50
2022/08/18 09:08:02;;;;;;;52.70;31.80;;;;;;;;;;4973945;28;20529;-50
2022/08/18 09:10:34;;;;;;;45.67;28.47;;;;;;;;;;4974279;28;20431;-49
2022/08/18 09:13:06;;;;;;;54.90;33.07;;;;;;;;;;4974461;28;20413;-50
2022/08/18 09:15:50;;;;;;;51.47;31.63;;;;;;;;;;4974340;28;20979;-50
2022/08/18 09:18:43;;;;;;;56.70;34.90;;;;;;;;;;4974248;28;20465;-49
2022/08/18 09:21:28;;;;;;;47.43;32.20;;;;;;;;;;4974419;28;20403;-50
2022/08/18 09:24:04;;;;;;;47.93;31.13;;;;;;;;;;4974232;28;21128;-50
2022/08/18 09:26:45;;;;;;;46.73;30.67;;;;;;;;;;4973776;28;20409;-50
2022/08/18 09:29:17;;;;;;;46.60;31.77;;;;;;;;;;4972873;28;20456;-50
2022/08/18 09:31:44;;;;;;;44.80;31.40;;;;;;;;;;4974209;28;20463;-51
2022/08/18 09:34:13;;;;;;;46.90;30.73;;;;;;;;;;4974021;28;20451;-50
2022/08/18 09:36:58;;;;;;;48.30;30.80;;;;;;;;;;4973947;28;20402;-51
2022/08/18 09:42:13;;;;;;;44.63;32.10;;;;;;;;;;4974035;28;20913;-49
2022/08/18 09:44:47;;;;;;;47.93;31.57;;;;;;;;;;4973846;28;20404;-50
2022/08/18 09:47:20;;;;;;;41.67;30.10;;;;;;;;;;4973845;28;20425;-51
2022/08/18 09:49:48;;;;;;;49.90;33.40;;;;;;;;;;4973533;28;20430;-49
2022/08/18 09:52:25;;;;;;;44.70;32.30;;;;;;;;;;4973702;28;20419;-50
2022/08/18 09:55:00;;;;;;;41.97;27.60;;;;;;;;;;4973502;28;20909;-50
2022/08/18 09:57:30;;;;;;;53.13;33.57;;;;;;;;;;4973537;28;20427;-50
2022/08/18 10:00:02;;;;;;;42.33;30.17;;;;;;;;;;4972312;28;20569;-50
2022/08/18 10:02:28;;;;;;;49.63;32.33;;;;;;;;;;4973001;28;20475;-50
2022/08/18 10:05:13;;;;;;;42.83;29.40;;;;;;;;;;4973450;28;20405;-50
2022/08/18 10:07:42;;;;;;;49.60;32.17;;;;;;;;;;4973444;28;20455;-50
2022/08/18 10:10:17;;;;;;;50.10;34.07;;;;;;;;;;4973112;28;20429;-50
2022/08/18 10:12:59;;;;;;;46.30;32.20;;;;;;;;;;4973570;28;20483;-49
2022/08/18 10:15:34;;;;;;;47.17;31.17;;;;;;;;;;4973222;28;21031;-50
2022/08/18 10:18:03;;;;;;;44.17;30.70;;;;;;;;;;4973368;28;20487;-50
2022/08/18 10:20:32;;;;;;;53.17;31.77;;;;;;;;;;4973021;28;20437;-50
2022/08/18 10:22:58;;;;;;;44.37;30.33;;;;;;;;;;4973281;28;20407;-50
2022/08/18 10:25:47;;;;;;;46.27;30.73;;;;;;;;;;4971914;28;20441;-50
2022/08/18 10:28:33;;;;;;;42.57;30.50;;;;;;;;;;4973194;28;21038;-50
2022/08/18 10:31:01;;;;;;;42.40;31.10;;;;;;;;;;4972241;28;20519;-50
2022/08/18 10:33:45;;;;;;;39.23;30.37;;;;;;;;;;4973100;28;20456;-50
2022/08/18 10:36:31;;;;;;;33.47;24.70;;;;;;;;;;4973173;28;20956;-49
2022/08/18 10:38:57;;;;;;;34.70;26.27;;;;;;;;;;4971272;28;20517;-51
2022/08/18 10:41:28;;;;;;;41.87;31.40;;;;;;;;;;4973141;28;20955;-50
2022/08/18 10:43:54;;;;;;;37.00;25.30;;;;;;;;;;4973137;28;20454;-50
2022/08/18 10:46:22;;;;;;;37.13;28.70;;;;;;;;;;4972018;28;20932;-50
2022/08/18 10:49:11;;;;;;;31.50;25.23;;;;;;;;;;4972759;28;20820;-50
2022/08/18 10:51:46;;;;;;;31.17;23.13;;;;;;;;;;4965312;28;20444;-50
2022/08/18 10:54:33;;;;;;;34.07;26.50;;;;;;;;;;4973089;28;20458;-50
2022/08/18 10:57:14;;;;;;;31.37;23.80;;;;;;;;;;4972908;28;20443;-50
2022/08/18 10:59:49;;;;;;;47.17;35.60;;;;;;;;;;4972725;28;20435;-50
2022/08/18 11:02:15;;;;;;;45.60;34.40;;;;;;;;;;4973008;28;20806;-50
2022/08/18 11:04:46;;;;;;;36.20;27.97;;;;;;;;;;4972954;28;20419;-50
2022/08/18 11:07:14;;;;;;;29.17;24.93;;;;;;;;;;4972024;28;20571;-50
2022/08/18 11:09:40;;;;;;;35.57;28.47;;;;;;;;;;4971925;28;20849;-50
2022/08/18 11:12:07;;;;;;;26.07;22.60;;;;;;;;;;4966447;28;20873;-50
2022/08/18 11:14:36;;;;;;;27.53;23.37;;;;;;;;;;4971285;28;20548;-49
2022/08/18 11:17:02;;;;;;;38.50;28.50;;;;;;;;;;4972624;28;20463;-51
2022/08/18 11:19:28;;;;;;;43.03;32.87;;;;;;;;;;4972520;28;20828;-51
2022/08/18 11:21:54;;;;;;;40.37;32.80;;;;;;;;;;4972796;28;20411;-50
2022/08/18 11:24:25;;;;;;;42.40;32.07;;;;;;;;;;4973792;28;20492;-50
2022/08/18 11:26:54;;;;;;;39.50;31.53;;;;;;;;;;4972444;28;20411;-51
2022/08/18 11:29:20;;;;;;;41.77;32.37;;;;;;;;;;4972252;28;20520;-50
2022/08/18 11:31:48;;;;;;;36.70;30.30;;;;;;;;;;4970639;28;20515;-51
2022/08/18 11:34:18;;;;;;;46.80;35.80;;;;;;;;;;4972490;28;20479;-50
2022/08/18 11:36:55;;;;;;;44.23;32.90;;;;;;;;;;4972822;28;20755;-50
2022/08/18 11:39:21;;;;;;;35.03;28.57;;;;;;;;;;4972244;28;20966;-51
2022/08/18 11:41:48;;;;;;;32.50;27.40;;;;;;;;;;4972170;28;20458;-51
2022/08/18 11:44:23;;;;;;;39.70;31.17;;;;;;;;;;4972508;28;20419;-50
2022/08/18 11:46:53;;;;;;;33.80;29.20;;;;;;;;;;4972798;28;20440;-50
2022/08/18 11:49:25;;;;;;;35.33;29.47;;;;;;;;;;4972179;28;20447;-51
2022/08/18 11:51:56;;;;;;;34.70;28.90;;;;;;;;;;4975889;28;20446;-50
2022/08/18 11:54:23;;;;;;;34.57;29.93;;;;;;;;;;4975867;28;20481;-51
2022/08/18 11:56:49;;;;;;;31.60;27.13;;;;;;;;;;4975830;28;20441;-50
2022/08/18 11:59:34;;;;;;;34.43;28.80;;;;;;;;;;4975482;28;20422;-50
2022/08/18 12:02:01;;;;;;;37.50;30.13;;;;;;;;;;4974882;28;20438;-51
2022/08/18 12:04:41;;;;;;;32.10;27.40;;;;;;;;;;4974689;28;20996;-50
2022/08/18 12:07:07;;;;;;;36.60;29.63;;;;;;;;;;4975642;28;20934;-50
2022/08/18 12:09:35;;;;;;;36.77;30.40;;;;;;;;;;4975262;28;20426;-50
2022/08/18 12:12:22;;;;;;;34.00;29.10;;;;;;;;;;4975542;28;20908;-50
2022/08/18 12:14:54;;;;;;;38.33;28.30;;;;;;;;;;4965121;28;20476;-49
2022/08/18 12:17:20;;;;;;;37.90;28.23;;;;;;;;;;4975394;28;20930;-50
2022/08/18 12:19:46;;;;;;;38.57;29.60;;;;;;;;;;4975132;28;20424;-50
2022/08/18 12:22:17;;;;;;;42.97;29.00;;;;;;;;;;4975339;28;20410;-50
2022/08/18 12:24:44;;;;;;;36.63;32.10;;;;;;;;;;4975256;28;20415;-50
2022/08/18 12:27:11;;;;;;;30.40;27.00;;;;;;;;;;4975367;28;20908;-50
2022/08/18 12:29:37;;;;;;;32.60;28.20;;;;;;;;;;4974662;28;20504;-50
2022/08/18 12:32:03;;;;;;;32.70;28.13;;;;;;;;;;4974201;28;21192;-49
2022/08/18 12:34:29;;;;;;;36.03;28.67;;;;;;;;;;4975116;28;20460;-51
2022/08/18 12:36:56;;;;;;;33.30;27.13;;;;;;;;;;4975085;28;20737;-50
2022/08/18 12:39:22;;;;;;;29.73;26.53;;;;;;;;;;4974741;28;20432;-50
2022/08/18 12:41:49;;;;;;;32.23;28.80;;;;;;;;;;4974982;28;20497;-50
2022/08/18 12:44:15;;;;;;;30.37;25.50;;;;;;;;;;4974879;28;20500;-51
2022/08/18 12:46:41;;;;;;;30.00;23.50;;;;;;;;;;4973558;28;21007;-50
2022/08/18 12:49:14;;;;;;;27.23;23.37;;;;;;;;;;4974686;28;20424;-50
2022/08/18 12:51:40;;;;;;;32.00;25.33;;;;;;;;;;4974847;28;20529;-50
2022/08/18 12:54:06;;;;;;;28.60;25.37;;;;;;;;;;4974865;28;20456;-50
2022/08/18 12:56:32;;;;;;;23.37;20.87;;;;;;;;;;4974659;28;20447;-50
2022/08/18 12:59:00;;;;;;;25.73;20.77;;;;;;;;;;4974413;28;20425;-51
2022/08/18 13:01:27;;;;;;;21.07;18.80;;;;;;;;;;4973866;28;20709;-50
2022/08/18 13:03:54;;;;;;;25.37;20.60;;;;;;;;;;4973509;28;20947;-50
2022/08/18 13:06:21;;;;;;;20.63;18.43;;;;;;;;;;4974526;28;20401;-50
2022/08/18 13:08:47;;;;;;;19.03;17.13;;;;;;;;;;4974273;28;20415;-50
2022/08/18 13:11:13;;;;;;;19.80;17.03;;;;;;;;;;4974433;28;20401;-51
2022/08/18 13:13:40;;;;;;;19.00;17.00;;;;;;;;;;4974509;28;20913;-50
2022/08/18 13:16:09;;;;;;;17.60;15.17;;;;;;;;;;4974366;28;21000;-51
2022/08/18 13:18:36;;;;;;;18.13;16.33;;;;;;;;;;4974015;28;20462;-51
2022/08/18 13:21:03;;;;;;;16.47;14.17;;;;;;;;;;4974336;28;20405;-51
2022/08/18 13:23:29;;;;;;;15.33;13.80;;;;;;;;;;4974324;28;20401;-51
2022/08/18 13:25:56;;;;;;;15.50;13.90;;;;;;;;;;4974104;28;20908;-51
2022/08/18 13:28:22;;;;;;;18.57;16.37;;;;;;;;;;4974109;28;20487;-50
2022/08/18 13:30:49;;;;;;;18.03;15.53;;;;;;;;;;4973962;28;20512;-50
2022/08/18 13:33:17;;;;;;;18.03;16.13;;;;;;;;;;4973147;28;20980;-50
2022/08/18 13:35:43;;;;;;;17.10;15.30;;;;;;;;;;4973886;28;20484;-50
2022/08/18 13:38:09;;;;;;;16.63;14.83;;;;;;;;;;4973737;28;20461;-51
2022/08/18 13:40:36;;;;;;;16.80;15.00;;;;;;;;;;4973635;28;20516;-51
2022/08/18 13:43:02;;;;;;;13.97;12.53;;;;;;;;;;4973845;28;20405;-51
2022/08/18 13:45:29;;;;;;;25.30;14.87;;;;;;;;;;4972499;28;20417;-50
2022/08/18 13:47:55;;;;;;;12.00;10.70;;;;;;;;;;4973779;28;20436;-51
2022/08/18 13:50:21;;;;;;;13.80;12.40;;;;;;;;;;4973564;28;20516;-50
2022/08/18 13:52:49;;;;;;;13.00;11.60;;;;;;;;;;4972283;28;20433;-51
2022/08/18 13:55:16;;;;;;;9.73;8.93;;;;;;;;;;4973503;28;20555;-50
2022/08/18 13:57:51;;;;;;;11.70;10.60;;;;;;;;;;4973534;28;20413;-50
2022/08/18 14:00:19;;;;;;;10.47;9.30;;;;;;;;;;4973371;28;20519;-51
2022/08/18 14:02:52;;;;;;;9.80;9.00;;;;;;;;;;4972562;28;20896;-51
2022/08/18 14:05:19;;;;;;;8.90;8.10;;;;;;;;;;4972648;28;20936;-51
2022/08/18 14:07:45;;;;;;;10.87;9.07;;;;;;;;;;4973414;28;20543;-51
2022/08/18 14:10:12;;;;;;;8.53;7.83;;;;;;;;;;4971992;28;20539;-50
2022/08/18 14:12:38;;;;;;;13.17;7.97;;;;;;;;;;4973242;28;20408;-51
2022/08/18 14:15:05;;;;;;;9.90;8.60;;;;;;;;;;4973525;28;20483;-50
2022/08/18 14:17:31;;;;;;;12.90;11.80;;;;;;;;;;4973770;28;20408;-49
2022/08/18 14:28:12;;;;;;;10.90;9.00;;;;;;;;;;4972964;28;20407;-50
2022/08/18 14:30:38;;;;;;;8.60;8.00;;;;;;;;;;4972856;28;20515;-50
2022/08/18 14:33:08;;;;;;;9.43;8.63;;;;;;;;;;4972054;28;20432;-50
2022/08/18 14:35:34;;;;;;;10.17;9.30;;;;;;;;;;4972155;28;20461;-50
2022/08/18 14:38:00;;;;;;;10.23;9.33;;;;;;;;;;4973175;28;20416;-50
2022/08/18 14:40:27;;;;;;;9.10;8.20;;;;;;;;;;4972740;28;20425;-51
2022/08/18 14:42:54;;;;;;;9.90;8.77;;;;;;;;;;4972997;28;20428;-51
2022/08/18 14:45:20;;;;;;;10.03;9.03;;;;;;;;;;4972976;28;20416;-50
2022/08/18 14:47:46;;;;;;;11.23;10.30;;;;;;;;;;4973046;28;20405;-50
2022/08/18 14:50:12;;;;;;;9.37;8.57;;;;;;;;;;4972693;28;20440;-51
2022/08/18 14:52:41;;;;;;;9.47;8.63;;;;;;;;;;4972901;28;20452;-51